Time;durP1;ratioP1;P1;durP2;ratioP2;P2;SDS_P1;SDS_P2;PMS_P1;PMS_P2;Temp;Humidity;BMP_temperature;BMP_pressure;BME280_temperature;BME280_humidity;BME280_pressure;Samples;Min_cycle;Max_cycle;Signal;HPM_P1;HPM_P2
2022/05/14 00:01:22;;;;;;;8.63;4.88;;;;;;;21.94;34.43;100387.56;5112671;27;20130;-67
2022/05/14 00:03:49;;;;;;;8.90;3.95;;;;;;;21.92;34.68;100383.44;5111406;28;20092;-66
2022/05/14 00:06:21;;;;;;;10.80;5.13;;;;;;;21.79;35.18;100370.47;5113027;28;20070;-67
2022/05/14 00:08:49;;;;;;;10.00;4.10;;;;;;;21.84;35.51;100385.22;5110142;28;20061;-67
2022/05/14 00:14:03;;;;;;;11.20;5.60;;;;;;;21.75;35.77;100374.03;5112045;28;20126;-67
2022/05/14 00:16:33;;;;;;;14.68;6.53;;;;;;;21.67;36.26;100359.94;5111530;28;20078;-67
2022/05/14 00:19:02;;;;;;;9.43;5.10;;;;;;;21.66;36.60;100369.66;5112602;28;20418;-66
2022/05/14 00:21:30;;;;;;;8.23;4.32;;;;;;;21.57;36.52;100358.44;5110572;28;20578;-67
2022/05/14 00:23:58;;;;;;;11.68;5.63;;;;;;;21.25;36.92;100311.97;5110644;28;20090;-66
2022/05/14 00:26:26;;;;;;;20.95;7.50;;;;;;;21.55;37.10;100366.50;5112058;28;20844;-66
2022/05/14 00:28:53;;;;;;;9.85;4.90;;;;;;;21.46;37.12;100360.94;5111597;28;20473;-67
2022/05/14 00:31:20;;;;;;;12.60;5.32;;;;;;;21.48;37.55;100360.59;5107211;28;20147;-68
2022/05/14 00:33:47;;;;;;;8.70;4.55;;;;;;;21.49;37.51;100365.09;5110387;28;20051;-66
2022/05/14 00:36:14;;;;;;;12.82;5.13;;;;;;;21.43;37.53;100355.97;5107253;28;20538;-65
2022/05/14 00:38:42;;;;;;;12.23;6.03;;;;;;;21.43;38.00;100353.16;5111259;27;20059;-66
2022/05/14 00:41:09;;;;;;;13.35;6.50;;;;;;;21.33;38.40;100339.41;5109005;28;20130;-67
2022/05/14 00:43:49;;;;;;;12.60;6.78;;;;;;;21.29;38.20;100327.94;5112329;27;20048;-67
2022/05/14 00:46:26;;;;;;;18.83;7.20;;;;;;;21.28;38.53;100331.16;5112526;27;20518;-66
2022/05/14 00:48:57;;;;;;;11.40;5.40;;;;;;;21.23;39.21;100325.69;5109856;28;20039;-66
2022/05/14 00:51:32;;;;;;;9.60;5.60;;;;;;;20.99;39.79;100293.34;5111958;28;20108;-63
2022/05/14 00:54:06;;;;;;;6.53;4.05;;;;;;;21.00;39.76;100303.53;5102697;27;20488;-66
2022/05/14 00:56:46;;;;;;;17.05;4.60;;;;;;;20.97;39.86;100300.56;5103314;27;20051;-65
2022/05/14 00:59:19;;;;;;;12.07;5.15;;;;;;;21.02;39.92;100311.66;5102725;28;20055;-65
2022/05/14 01:01:48;;;;;;;10.18;4.28;;;;;;;21.02;39.80;100305.97;5109036;28;20623;-67
2022/05/14 01:04:19;;;;;;;12.27;5.10;;;;;;;21.03;40.21;100299.97;5111509;28;20069;-69
2022/05/14 01:06:57;;;;;;;14.40;6.10;;;;;;;20.89;40.04;100284.47;5109684;28;20699;-67
2022/05/14 01:09:24;;;;;;;15.65;4.93;;;;;;;20.91;40.61;100302.81;5106048;28;20075;-67
2022/05/14 01:11:54;;;;;;;15.13;4.75;;;;;;;20.85;40.59;100295.72;5107020;28;20051;-65
2022/05/14 01:14:21;;;;;;;;;;;;;;;20.69;39.88;100294.81;5108327;28;20048;-66
2022/05/14 01:16:48;;;;;;;8.30;4.63;;;;;;;20.72;40.25;100289.25;5109623;28;19920;-66
2022/05/14 01:19:15;;;;;;;10.50;4.80;;;;;;;20.87;40.21;100304.72;5109470;28;20055;-67
2022/05/14 01:22:09;;;;;;;14.35;5.53;;;;;;;20.86;40.04;100290.91;5108767;28;20147;-66
2022/05/14 01:27:21;;;;;;;10.25;3.85;;;;;;;20.85;40.45;100277.88;5104702;28;20071;-69
2022/05/14 01:29:48;;;;;;;6.10;3.47;;;;;;;20.92;40.06;100289.44;5112667;28;20131;-69
2022/05/14 01:32:15;;;;;;;10.80;5.25;;;;;;;20.93;39.66;100283.44;5115809;28;20127;-68
2022/05/14 01:34:44;;;;;;;11.38;4.78;;;;;;;20.89;39.80;100273.13;5114526;28;20150;-68
2022/05/14 01:37:11;;;;;;;7.68;4.97;;;;;;;21.01;39.85;100273.13;5113157;28;20071;-68
2022/05/14 01:39:38;;;;;;;22.17;5.43;;;;;;;20.91;39.77;100263.06;5112059;28;20134;-68
2022/05/14 01:42:06;;;;;;;10.63;4.05;;;;;;;21.04;39.74;100263.88;5115630;28;20127;-67
2022/05/14 01:44:33;;;;;;;6.90;3.97;;;;;;;20.93;40.05;100245.69;5115766;28;20071;-66
2022/05/14 01:47:00;;;;;;;6.53;3.72;;;;;;;20.95;40.13;100241.28;5115717;28;20555;-69
2022/05/14 01:49:27;;;;;;;11.90;4.60;;;;;;;20.95;40.11;100237.63;5113873;27;20127;-68
2022/05/14 01:51:55;;;;;;;12.15;4.95;;;;;;;21.00;40.33;100246.75;5114020;27;20071;-69
2022/05/14 01:54:22;;;;;;;8.82;4.28;;;;;;;21.06;40.23;100262.34;5113755;27;20123;-67
2022/05/14 01:56:49;;;;;;;8.43;4.22;;;;;;;21.11;40.53;100255.59;5115931;27;20083;-67
2022/05/14 01:59:16;;;;;;;12.18;4.85;;;;;;;21.10;40.58;100253.94;5113627;28;20121;-66
2022/05/14 02:01:43;;;;;;;12.50;5.35;;;;;;;21.09;40.37;100242.94;5111890;28;20502;-67
2022/05/14 02:04:14;;;;;;;14.25;4.28;;;;;;;21.10;41.05;100238.91;5115607;27;20524;-67
2022/05/14 02:06:42;;;;;;;17.50;5.78;;;;;;;21.06;41.35;100235.97;5116323;28;20040;-66
2022/05/14 02:09:11;;;;;;;11.43;5.63;;;;;;;20.92;41.59;100222.19;5112853;28;20470;-66
2022/05/14 02:11:39;;;;;;;13.80;4.40;;;;;;;20.98;41.73;100228.41;5116707;27;20130;-67
2022/05/14 02:14:08;;;;;;;16.23;5.07;;;;;;;20.95;42.06;100231.97;5116751;27;20131;-67
2022/05/14 02:16:35;;;;;;;13.45;5.63;;;;;;;20.72;41.77;100194.78;5112926;28;20075;-66
2022/05/14 02:19:04;;;;;;;8.02;4.38;;;;;;;20.87;41.80;100213.88;5114454;28;20421;-66
2022/05/14 02:21:32;;;;;;;10.48;4.85;;;;;;;20.93;41.67;100223.00;5115662;28;20050;-66
2022/05/14 02:24:00;;;;;;;12.43;4.78;;;;;;;20.92;41.88;100216.50;5110406;28;20093;-66
2022/05/14 02:26:27;;;;;;;16.77;5.95;;;;;;;20.93;41.68;100217.31;5127111;27;20059;-66
2022/05/14 02:28:55;;;;;;;10.07;4.82;;;;;;;20.93;41.98;100211.63;5130514;27;20039;-66
2022/05/14 02:31:22;;;;;;;16.17;4.97;;;;;;;20.94;41.35;100218.97;5114813;28;20052;-66
2022/05/14 02:33:49;;;;;;;14.13;5.47;;;;;;;20.82;42.02;100185.78;5112246;27;20075;-66
2022/05/14 02:36:18;;;;;;;19.15;8.32;;;;;;;20.92;42.31;100210.81;5110194;27;20454;-66
2022/05/14 02:38:46;;;;;;;14.48;6.55;;;;;;;20.93;42.24;100203.94;5113515;28;20131;-67
2022/05/14 02:41:13;;;;;;;18.35;7.78;;;;;;;20.93;42.32;100200.28;5115189;27;20126;-67
2022/05/14 02:43:41;;;;;;;15.32;6.63;;;;;;;20.90;42.26;100190.47;5113415;27;20406;-66
2022/05/14 02:46:09;;;;;;;10.45;5.03;;;;;;;20.83;42.28;100188.25;5112180;28;20071;-67
2022/05/14 02:48:36;;;;;;;12.40;6.53;;;;;;;20.89;42.51;100205.84;5112350;27;20048;-66
2022/05/14 02:51:03;;;;;;;15.10;6.15;;;;;;;20.76;42.39;100175.84;5115029;27;20067;-69
2022/05/14 02:53:31;;;;;;;9.45;6.07;;;;;;;20.88;42.38;100197.69;5113051;28;20197;-68
2022/05/14 02:55:58;;;;;;;12.25;6.97;;;;;;;20.89;42.33;100194.50;5112664;27;20139;-69
2022/05/14 03:01:11;;;;;;;10.40;4.55;;;;;;;20.77;41.79;100166.97;5101765;28;20442;-68
2022/05/14 03:03:38;;;;;;;9.23;4.28;;;;;;;20.89;41.34;100170.94;5094977;28;20101;-66
2022/05/14 03:06:05;;;;;;;13.38;4.60;;;;;;;20.95;41.39;100169.50;5114673;28;20079;-66
2022/05/14 03:08:32;;;;;;;8.73;4.03;;;;;;;21.09;41.24;100186.13;5107847;28;20074;-67
2022/05/14 03:10:59;;;;;;;11.00;5.22;;;;;;;20.89;41.20;100142.56;5113190;28;20070;-68
2022/05/14 03:13:26;;;;;;;6.97;4.88;;;;;;;21.11;41.01;100178.91;5113887;27;20082;-68
2022/05/14 03:15:53;;;;;;;11.55;5.10;;;;;;;21.19;40.85;100171.44;5110783;27;20078;-67
2022/05/14 03:18:20;;;;;;;10.90;4.50;;;;;;;21.09;41.08;100169.94;5110433;28;20130;-66
2022/05/14 03:20:47;;;;;;;11.10;5.13;;;;;;;21.22;40.90;100176.38;5113885;28;20065;-66
2022/05/14 03:23:15;;;;;;;8.82;5.43;;;;;;;21.18;41.44;100155.59;5109629;28;20138;-66
2022/05/14 03:25:42;;;;;;;11.63;3.85;;;;;;;21.17;41.27;100142.59;5112400;27;20043;-66
2022/05/14 03:28:10;;;;;;;10.57;4.85;;;;;;;21.26;41.09;100161.13;5114877;27;20468;-66
2022/05/14 03:30:37;;;;;;;13.10;5.57;;;;;;;21.18;41.03;100149.91;5112544;28;20132;-67
2022/05/14 03:33:04;;;;;;;19.88;4.90;;;;;;;21.26;40.97;100157.44;5113291;27;20118;-66
2022/05/14 03:35:30;;;;;;;7.40;4.05;;;;;;;21.26;40.93;100161.13;5111831;28;20092;-66
2022/05/14 03:37:57;;;;;;;10.07;4.15;;;;;;;21.21;40.76;100150.00;5111784;27;20134;-65
2022/05/14 03:40:24;;;;;;;9.45;3.83;;;;;;;21.02;40.82;100125.13;5113157;28;20113;-66
2022/05/14 03:42:52;;;;;;;10.90;4.00;;;;;;;21.05;40.77;100124.41;5113450;27;20550;-66
2022/05/14 03:45:19;;;;;;;6.05;3.22;;;;;;;21.27;40.51;100142.06;5109192;27;20105;-66
2022/05/14 03:47:46;;;;;;;10.20;4.22;;;;;;;21.16;40.24;100112.53;5109158;27;20126;-66
2022/05/14 03:50:12;;;;;;;12.73;5.07;;;;;;;21.30;40.93;100121.47;5109802;28;20083;-66
2022/05/14 03:52:39;;;;;;;12.68;5.25;;;;;;;21.24;41.28;100120.06;5111764;28;20067;-66
2022/05/14 03:55:07;;;;;;;11.65;4.95;;;;;;;21.25;41.38;100127.38;5111694;27;20101;-67
2022/05/14 03:57:33;;;;;;;18.77;6.38;;;;;;;21.11;41.92;100105.09;5104842;28;20101;-67
2022/05/14 04:00:01;;;;;;;13.30;5.13;;;;;;;21.12;42.09;100106.75;5109030;27;20133;-66
2022/05/14 04:02:28;;;;;;;13.05;5.85;;;;;;;21.10;42.27;100102.63;5103892;28;20161;-67
2022/05/14 04:04:55;;;;;;;9.63;4.55;;;;;;;21.08;41.66;100096.50;5113038;27;20070;-66
2022/05/14 04:07:22;;;;;;;9.80;4.45;;;;;;;21.15;41.54;100091.81;5112004;28;20090;-67
2022/05/14 04:09:49;;;;;;;9.23;4.57;;;;;;;21.08;41.08;100087.97;5109263;28;20478;-67
2022/05/14 04:12:15;;;;;;;7.03;4.15;;;;;;;21.23;41.21;100095.69;5110568;27;20546;-67
2022/05/14 04:14:42;;;;;;;11.93;5.13;;;;;;;21.18;40.99;100076.91;5113583;28;20508;-66
2022/05/14 04:17:09;;;;;;;7.38;4.75;;;;;;;21.27;41.76;100088.09;5110562;27;20094;-67
2022/05/14 04:19:36;;;;;;;13.35;4.50;;;;;;;21.14;41.94;100083.69;5109335;28;20139;-67
2022/05/14 04:22:03;;;;;;;10.95;5.00;;;;;;;21.16;42.30;100084.13;5105630;27;20052;-67
2022/05/14 04:24:32;;;;;;;8.80;4.50;;;;;;;20.99;42.54;100071.94;5110125;28;20083;-67
2022/05/14 04:26:59;;;;;;;16.15;5.03;;;;;;;20.92;42.55;100062.38;5112669;28;20103;-67
2022/05/14 04:29:26;;;;;;;17.40;5.72;;;;;;;21.01;42.90;100077.22;5111740;28;20586;-67
2022/05/14 04:31:53;;;;;;;10.68;5.45;;;;;;;20.97;43.06;100079.16;5110362;28;20051;-68
2022/05/14 04:34:20;;;;;;;13.80;5.30;;;;;;;20.97;43.07;100088.50;5102465;28;20052;-67
2022/05/14 04:36:47;;;;;;;10.30;5.30;;;;;;;20.79;43.06;100064.47;5106591;27;20523;-66
2022/05/14 04:39:14;;;;;;;15.23;5.97;;;;;;;20.85;43.23;100080.03;5112230;28;20514;-67
2022/05/14 04:41:41;;;;;;;13.55;4.63;;;;;;;20.75;43.37;100064.38;5111361;28;20078;-66
2022/05/14 04:44:11;;;;;;;14.38;6.20;;;;;;;20.85;43.20;100084.88;5112455;28;20043;-66
2022/05/14 04:46:38;;;;;;;11.27;5.93;;;;;;;20.75;43.72;100083.38;5096876;28;20570;-66
2022/05/14 04:49:05;;;;;;;12.90;5.53;;;;;;;20.74;43.81;100085.38;5109656;27;20481;-66
2022/05/14 04:51:32;;;;;;;11.27;6.00;;;;;;;20.70;44.08;100090.13;5106101;28;20071;-66
2022/05/14 04:53:59;;;;;;;11.95;5.03;;;;;;;20.61;44.04;100092.28;5111274;28;20138;-66
2022/05/14 04:56:26;;;;;;;22.48;6.28;;;;;;;20.63;44.62;100100.47;5108709;28;20079;-67
2022/05/14 04:58:53;;;;;;;16.38;5.07;;;;;;;20.59;44.43;100112.53;5110555;28;20078;-67
2022/05/14 05:01:20;;;;;;;14.82;5.18;;;;;;;20.48;44.46;100100.00;5107791;28;20135;-67
2022/05/14 05:03:47;;;;;;;14.00;5.45;;;;;;;20.26;44.43;100060.81;5110826;27;20051;-67
2022/05/14 05:06:14;;;;;;;13.82;5.90;;;;;;;20.62;44.69;100115.84;5111212;28;20134;-65
2022/05/14 05:08:42;;;;;;;19.85;5.78;;;;;;;20.53;44.96;100119.63;5113907;27;20044;-66
2022/05/14 05:11:10;;;;;;;14.90;5.50;;;;;;;20.47;44.96;100118.19;5109503;28;20171;-66
2022/05/14 05:13:37;;;;;;;13.98;6.25;;;;;;;20.45;44.71;100137.59;5111107;28;20557;-66
2022/05/14 05:16:04;;;;;;;17.15;6.85;;;;;;;20.22;45.06;100114.56;5108388;28;20054;-65
2022/05/14 05:18:32;;;;;;;12.10;5.30;;;;;;;20.51;45.47;100184.41;5108044;28;20047;-66
2022/05/14 05:20:59;;;;;;;11.23;5.45;;;;;;;20.30;45.09;100193.00;5109746;28;20135;-66
2022/05/14 05:23:27;;;;;;;13.40;5.82;;;;;;;20.44;45.06;100263.53;5107901;28;20139;-65
2022/05/14 05:25:55;;;;;;;11.80;4.80;;;;;;;20.38;45.03;100310.38;5107128;28;20135;-67
2022/05/14 05:28:23;;;;;;;13.65;5.38;;;;;;;20.38;44.80;100316.03;5111034;28;20074;-66
2022/05/14 05:30:50;;;;;;;9.70;5.22;;;;;;;20.42;45.05;100305.63;5111360;28;20127;-67
2022/05/14 05:33:20;;;;;;;21.30;5.75;;;;;;;20.33;45.84;100291.56;5111046;28;20057;-66
2022/05/14 05:35:47;;;;;;;9.93;6.05;;;;;;;20.06;46.98;100310.03;5105252;28;20087;-67
2022/05/14 05:38:14;;;;;;;17.98;6.07;;;;;;;19.89;47.81;100301.75;5105994;28;20072;-66
2022/05/14 05:40:42;;;;;;;13.20;6.30;;;;;;;19.75;47.97;100295.56;5110234;28;20478;-65
2022/05/14 05:43:11;;;;;;;16.73;6.78;;;;;;;19.63;48.83;100291.50;5106436;28;20126;-66
2022/05/14 05:45:39;;;;;;;13.87;7.00;;;;;;;19.42;49.40;100333.16;5107993;28;20105;-65
2022/05/14 05:48:06;;;;;;;16.20;7.25;;;;;;;19.18;50.15;100343.16;5110178;28;20288;-67
2022/05/14 05:50:33;;;;;;;16.30;6.25;;;;;;;18.88;51.50;100307.56;5112847;28;20457;-66
2022/05/14 05:53:00;;;;;;;12.07;5.32;;;;;;;18.97;51.63;100313.97;5112205;28;20127;-66
2022/05/14 05:58:15;;;;;;;11.25;5.70;;;;;;;19.05;51.63;100303.81;5105523;28;20055;-65
2022/05/14 06:00:42;;;;;;;5.32;3.10;;;;;;;19.24;51.22;100289.16;5110658;28;20471;-66
2022/05/14 06:03:09;;;;;;;7.97;4.28;;;;;;;19.37;52.03;100288.06;5111030;28;20508;-66
2022/05/14 06:05:37;;;;;;;7.55;4.70;;;;;;;19.37;52.16;100225.75;5111149;28;20055;-65
2022/05/14 06:08:14;;;;;;;9.68;4.75;;;;;;;19.57;52.38;100222.06;5111752;28;20127;-65
2022/05/14 06:10:42;;;;;;;10.27;4.60;;;;;;;19.60;52.74;100204.38;5108076;28;20132;-67
2022/05/14 06:13:09;;;;;;;9.20;4.30;;;;;;;19.52;52.74;100167.63;5110196;28;20090;-68
2022/05/14 06:15:39;;;;;;;8.65;4.85;;;;;;;19.70;53.20;100177.63;5107062;28;20448;-68
2022/05/14 06:18:07;;;;;;;;;;;;;;;19.60;53.33;100159.03;5113897;28;20059;-67
2022/05/14 06:20:37;;;;;;;15.02;4.55;;;;;;;19.73;53.35;100142.94;5114957;27;19919;-70
2022/05/14 06:23:05;;;;;;;10.85;4.72;;;;;;;19.76;53.26;100170.56;5113896;28;20051;-70
2022/05/14 06:25:32;;;;;;;7.75;3.70;;;;;;;19.73;53.29;100170.44;5113707;27;20131;-67
2022/05/14 06:27:59;;;;;;;10.40;3.97;;;;;;;19.63;53.96;100186.69;5114188;27;20161;-68
2022/05/14 06:30:26;;;;;;;4.28;2.75;;;;;;;19.59;55.12;100205.53;5111753;28;20474;-68
2022/05/14 06:32:53;;;;;;;9.82;4.13;;;;;;;19.42;55.24;100160.44;5114221;28;20086;-68
2022/05/14 06:35:20;;;;;;;4.85;3.03;;;;;;;19.68;54.49;100156.47;5114927;27;20082;-67
2022/05/14 06:37:47;;;;;;;5.57;2.65;;;;;;;19.71;54.57;100156.59;5113955;27;20391;-66
2022/05/14 06:40:14;;;;;;;5.18;2.55;;;;;;;19.80;54.90;100159.34;5109489;27;20078;-67
2022/05/14 06:42:41;;;;;;;14.95;2.90;;;;;;;19.99;54.31;100185.09;5106444;27;20096;-67
2022/05/14 06:45:09;;;;;;;7.50;2.75;;;;;;;20.26;54.00;100199.75;5107689;27;20052;-67
2022/05/14 06:47:36;;;;;;;6.80;3.42;;;;;;;20.32;54.12;100201.16;5111380;27;20074;-66
2022/05/14 06:50:04;;;;;;;8.25;3.60;;;;;;;20.36;53.53;100149.06;5109639;27;20128;-66
2022/05/14 06:52:33;;;;;;;5.75;2.80;;;;;;;20.69;52.91;100155.78;5112750;28;20469;-66
2022/05/14 06:55:01;;;;;;;6.53;2.30;;;;;;;21.11;52.07;100159.03;5109443;27;20486;-66
2022/05/14 06:57:33;;;;;;;4.80;1.83;;;;;;;21.20;52.00;100151.22;5111923;28;20056;-69
2022/05/14 07:00:00;;;;;;;4.40;3.10;;;;;;;21.19;51.51;100158.06;5114873;28;20122;-82
2022/05/14 07:02:28;;;;;;;7.13;3.33;;;;;;;21.22;51.29;100168.69;5114031;28;20059;-77
2022/05/14 07:07:42;;;;;;;7.07;2.72;;;;;;;21.38;50.43;100143.22;5113167;27;20130;-72
2022/05/14 07:10:10;;;;;;;8.57;2.67;;;;;;;21.48;50.07;100133.34;5115496;27;20138;-75
2022/05/14 07:12:37;;;;;;;4.88;1.73;;;;;;;21.63;49.82;100128.84;5114930;28;20497;-74
2022/05/14 07:15:06;;;;;;;1.25;1.02;;;;;;;21.17;50.09;100044.03;5113623;27;20094;-74
2022/05/14 07:17:33;;;;;;;2.28;1.55;;;;;;;21.63;50.77;100120.31;5113530;28;20086;-75
2022/05/14 07:20:00;;;;;;;6.47;2.90;;;;;;;21.78;50.50;100147.94;5115234;27;20540;-77
2022/05/14 07:22:27;;;;;;;6.55;1.90;;;;;;;21.70;50.11;100134.72;5113316;27;20457;-67
2022/05/14 07:24:54;;;;;;;6.38;2.08;;;;;;;21.92;49.75;100145.47;5106817;27;20052;-66
2022/05/14 07:27:21;;;;;;;5.55;1.85;;;;;;;21.80;49.44;100110.59;5111632;28;20075;-66
2022/05/14 07:29:48;;;;;;;9.93;2.47;;;;;;;21.95;49.25;100104.94;5112439;28;20134;-66
2022/05/14 07:32:17;;;;;;;6.38;2.47;;;;;;;21.91;49.06;100115.34;5105932;27;20482;-66
2022/05/14 07:34:45;;;;;;;7.38;2.05;;;;;;;21.83;49.31;100113.53;5107338;28;20135;-65
2022/05/14 07:37:16;;;;;;;5.30;2.03;;;;;;;22.03;49.76;100150.59;5111611;28;20135;-65
2022/05/14 07:39:57;;;;;;;5.32;2.65;;;;;;;21.87;49.72;100113.63;5111116;28;20050;-66
2022/05/14 07:42:50;;;;;;;7.82;2.50;;;;;;;21.99;50.04;100122.06;5106859;28;20492;-65
2022/05/14 07:45:23;;;;;;;7.32;3.28;;;;;;;21.98;50.44;100120.41;5109491;27;20471;-65
2022/05/14 07:47:53;;;;;;;4.88;2.50;;;;;;;21.93;50.31;100121.50;5110967;28;20082;-67
2022/05/14 07:50:20;;;;;;;7.30;2.30;;;;;;;21.86;50.04;100120.50;5110933;28;20143;-66
2022/05/14 07:52:47;;;;;;;9.18;2.80;;;;;;;21.80;49.93;100127.66;5109886;28;20326;-65
2022/05/14 07:55:14;;;;;;;0.90;0.85;;;;;;;21.57;49.72;100167.25;5109266;27;20127;-65
2022/05/14 07:57:41;;;;;;;3.42;1.42;;;;;;;21.36;49.60;100173.16;5112428;28;20205;-66
2022/05/14 08:00:09;;;;;;;2.42;2.08;;;;;;;21.10;50.23;100153.75;5113992;27;20497;-64
2022/05/14 08:02:37;;;;;;;2.78;1.98;;;;;;;21.02;49.41;100159.19;5109931;28;20481;-65
2022/05/14 08:05:08;;;;;;;6.57;2.25;;;;;;;21.10;49.16;100142.38;5111646;28;20422;-66
2022/05/14 08:07:35;;;;;;;4.57;1.63;;;;;;;21.13;48.78;100147.31;5107985;28;20050;-66
2022/05/14 08:10:04;;;;;;;5.00;2.25;;;;;;;21.00;48.66;100147.38;5103944;28;20079;-66
2022/05/14 08:12:38;;;;;;;7.40;2.47;;;;;;;20.94;48.98;100148.81;5108890;27;20138;-65
2022/05/14 08:15:07;;;;;;;5.53;2.10;;;;;;;21.01;49.31;100156.72;5105174;28;20534;-65
2022/05/14 08:17:34;;;;;;;6.70;2.70;;;;;;;20.85;49.96;100145.28;5105401;28;20074;-65
2022/05/14 08:20:02;;;;;;;5.07;2.40;;;;;;;21.00;49.74;100124.69;5112918;27;20078;-66
2022/05/14 08:25:14;;;;;;;5.63;2.10;;;;;;;20.54;51.26;100114.78;5103408;28;20138;-71
2022/05/14 08:27:44;;;;;;;2.42;2.08;;;;;;;20.58;51.75;100127.91;5112438;28;20047;-71
2022/05/14 08:30:16;;;;;;;2.50;1.67;;;;;;;20.61;52.33;100139.69;5113332;27;20078;-77
2022/05/14 08:32:43;;;;;;;3.50;1.50;;;;;;;20.35;52.64;100143.75;5110409;28;20071;-69
2022/05/14 08:35:11;;;;;;;6.57;3.05;;;;;;;20.29;53.44;100159.34;5112782;28;20043;-69
2022/05/14 08:37:39;;;;;;;2.47;1.73;;;;;;;20.33;53.03;100146.09;5106879;28;20043;-67
2022/05/14 08:40:17;;;;;;;7.72;3.35;;;;;;;20.15;53.18;100154.03;5110055;28;20138;-66
2022/05/14 08:42:49;;;;;;;6.40;3.58;;;;;;;20.06;54.12;100162.66;5110026;28;20040;-66
2022/05/14 08:45:25;;;;;;;1.25;1.15;;;;;;;20.07;54.39;100164.31;5111599;27;20058;-66
2022/05/14 08:47:56;;;;;;;5.55;1.92;;;;;;;20.01;55.03;100160.06;5107685;27;20071;-65
2022/05/14 08:50:28;;;;;;;2.92;2.05;;;;;;;19.99;55.23;100168.09;5114445;27;20051;-67
2022/05/14 08:53:00;;;;;;;7.90;2.70;;;;;;;20.07;54.98;100146.50;5124921;27;20098;-66
2022/05/14 08:55:40;;;;;;;7.70;2.97;;;;;;;20.09;54.67;100142.09;5109792;27;20115;-67
2022/05/14 08:58:31;;;;;;;13.27;5.10;;;;;;;20.31;54.54;100134.31;5109643;28;20112;-65
2022/05/14 09:01:04;;;;;;;8.05;2.75;;;;;;;20.24;54.88;100131.22;5106281;27;20078;-66
2022/05/14 09:03:32;;;;;;;3.53;2.28;;;;;;;20.26;54.79;100143.88;5106925;28;20146;-66
2022/05/14 09:06:00;;;;;;;8.10;2.40;;;;;;;20.19;55.71;100135.13;5110207;28;20134;-66
2022/05/14 09:08:27;;;;;;;3.83;2.25;;;;;;;20.21;55.83;100129.13;5105540;28;20063;-66
2022/05/14 09:11:05;;;;;;;5.43;2.90;;;;;;;19.79;55.83;100044.34;5109739;27;20077;-65
2022/05/14 09:13:43;;;;;;;8.80;4.07;;;;;;;20.62;54.76;100093.97;5102268;28;20187;-67
2022/05/14 09:16:28;;;;;;;6.78;3.17;;;;;;;20.81;54.06;100070.59;5092084;28;20048;-66
2022/05/14 09:18:55;;;;;;;12.35;2.92;;;;;;;21.15;53.87;100093.84;5108630;28;20044;-66
2022/05/14 09:21:29;;;;;;;7.07;3.15;;;;;;;21.39;53.25;100075.84;5092015;28;20079;-66
2022/05/14 09:24:17;;;;;;;11.77;3.78;;;;;;;21.73;53.17;100091.34;5097321;28;20048;-67
2022/05/14 09:26:45;;;;;;;4.57;3.03;;;;;;;22.06;52.09;100095.81;5111695;28;20127;-65
2022/05/14 09:29:15;;;;;;;4.60;2.78;;;;;;;21.97;52.21;100130.13;5113250;28;20145;-66
2022/05/14 09:31:59;;;;;;;4.97;2.35;;;;;;;21.59;52.66;100111.72;5111907;28;20514;-67
2022/05/14 09:34:34;;;;;;;3.85;2.30;;;;;;;21.63;52.56;100106.13;5112762;28;20055;-65
2022/05/14 09:37:09;;;;;;;8.60;3.35;;;;;;;21.37;53.16;100096.13;5108179;28;20155;-67
2022/05/14 09:39:37;;;;;;;5.05;2.22;;;;;;;20.91;54.32;100044.53;5112729;28;20043;-66
2022/05/14 09:42:05;;;;;;;6.22;3.15;;;;;;;20.99;54.80;100080.44;5111959;28;20139;-67
2022/05/14 09:44:47;;;;;;;7.20;2.38;;;;;;;20.88;54.94;100079.31;5108244;28;20123;-66
2022/05/14 09:47:25;;;;;;;13.32;3.38;;;;;;;20.96;54.43;100058.47;5092623;28;20139;-66
2022/05/14 09:49:54;;;;;;;9.45;3.47;;;;;;;21.30;54.35;100084.53;5092911;28;20425;-66
2022/05/14 09:52:30;;;;;;;5.25;3.28;;;;;;;21.24;54.43;100097.34;5103110;28;20086;-67
2022/05/14 09:54:58;;;;;;;4.18;2.22;;;;;;;21.09;54.83;100083.94;5115512;28;20079;-66
2022/05/14 09:57:34;;;;;;;5.05;2.47;;;;;;;21.23;54.66;100107.03;5116713;28;20106;-66
2022/05/14 10:00:05;;;;;;;12.13;4.07;;;;;;;21.18;54.90;100098.78;5116194;28;20135;-66
2022/05/14 10:02:44;;;;;;;4.95;2.65;;;;;;;21.22;54.45;100074.97;5117141;28;20047;-65
2022/05/14 10:05:20;;;;;;;5.75;2.58;;;;;;;21.29;53.71;100072.31;5116460;28;20500;-65
2022/05/14 10:07:53;;;;;;;2.15;1.70;;;;;;;21.62;51.92;100081.75;5117148;28;20071;-66
2022/05/14 10:11:02;;;;;;;2.05;1.48;;;;;;;22.16;50.62;100064.84;5115112;28;20142;-65
2022/05/14 10:14:04;;;;;;;1.67;1.35;;;;;;;23.01;49.21;100086.97;5116689;28;20051;-65
2022/05/14 10:16:46;;;;;;;1.38;1.27;;;;;;;23.86;47.42;100090.63;5149428;27;20082;-66
2022/05/14 10:19:16;;;;;;;1.75;1.35;;;;;;;24.44;46.01;100095.19;5116353;28;20139;-66
2022/05/14 10:21:51;;;;;;;;;;;;;;;24.62;45.52;100087.72;5115604;28;20071;-67
2022/05/14 10:27:50;;;;;;;9.75;2.92;;;;;;;25.89;44.00;100069.53;5116234;28;20070;-66
2022/05/14 10:30:24;;;;;;;2.83;1.90;;;;;;;26.05;42.02;100063.53;5116362;28;20097;-67
2022/05/14 10:33:01;;;;;;;2.78;1.23;;;;;;;26.39;41.01;100043.28;5116631;28;20072;-66
2022/05/14 10:35:35;;;;;;;2.80;1.88;;;;;;;26.27;41.27;100081.66;5115565;28;20065;-67
2022/05/14 10:38:13;;;;;;;2.65;2.00;;;;;;;25.98;41.01;100035.69;5116437;28;20071;-67
2022/05/14 10:40:48;;;;;;;10.68;3.50;;;;;;;26.37;40.93;100071.50;5112946;28;20067;-67
2022/05/14 10:43:35;;;;;;;4.07;1.98;;;;;;;26.14;40.88;100064.00;5112595;28;20071;-66
2022/05/14 10:46:08;;;;;;;1.90;1.20;;;;;;;26.32;41.39;100077.59;5116212;28;20108;-66
2022/05/14 10:48:47;;;;;;;7.47;2.10;;;;;;;26.60;40.23;100080.69;5116171;27;20048;-66
2022/05/14 10:51:21;;;;;;;3.50;1.95;;;;;;;26.99;40.22;100051.38;5114272;28;20478;-66
2022/05/14 10:53:48;;;;;;;4.53;2.05;;;;;;;27.52;39.53;100078.53;5114995;28;20555;-66
2022/05/14 10:56:49;;;;;;;7.05;3.30;;;;;;;27.93;39.14;100078.16;5098002;28;20483;-67
2022/05/14 10:59:32;;;;;;;3.88;1.83;;;;;;;27.94;38.88;100080.66;5094994;28;20044;-66
2022/05/14 11:02:03;;;;;;;11.73;4.32;;;;;;;27.85;38.38;100085.97;5103876;27;20131;-67
2022/05/14 11:04:42;;;;;;;4.53;3.28;;;;;;;27.51;38.59;100074.84;5105694;27;20086;-66
2022/05/14 11:07:14;;;;;;;3.70;2.47;;;;;;;27.52;38.59;100056.44;5106989;27;20629;-66
2022/05/14 11:09:49;;;;;;;6.10;2.72;;;;;;;27.57;38.23;100087.56;5110471;27;20569;-67
2022/05/14 11:12:22;;;;;;;2.50;1.83;;;;;;;27.81;38.54;100085.97;5108085;27;20489;-67
2022/05/14 11:14:52;;;;;;;1.70;1.60;;;;;;;27.55;38.33;100069.91;5106192;27;20123;-67
2022/05/14 11:17:26;;;;;;;1.88;1.52;;;;;;;27.56;38.19;100065.03;5104551;27;20537;-67
2022/05/14 11:20:05;;;;;;;5.07;3.20;;;;;;;27.51;38.11;100068.28;5103666;27;20079;-66
2022/05/14 11:22:39;;;;;;;1.77;1.63;;;;;;;27.40;37.57;100074.81;5107582;27;20075;-66
2022/05/14 11:25:22;;;;;;;2.08;1.75;;;;;;;27.21;38.27;100031.38;5105646;27;20126;-66
2022/05/14 11:27:56;;;;;;;18.42;9.90;;;;;;;27.53;38.29;100075.25;5108032;28;20517;-66
2022/05/14 11:30:29;;;;;;;9.18;8.40;;;;;;;27.58;37.91;100103.53;5105191;27;20555;-66
2022/05/14 11:32:57;;;;;;;4.35;2.20;;;;;;;27.59;37.76;100042.09;5103370;27;20078;-67
2022/05/14 11:35:36;;;;;;;2.00;1.25;;;;;;;27.77;37.66;100035.56;5103761;27;20134;-66
2022/05/14 11:38:16;;;;;;;1.90;1.60;;;;;;;27.93;37.56;100033.06;5107065;27;20138;-66
2022/05/14 11:40:55;;;;;;;8.68;4.43;;;;;;;28.20;37.27;100012.53;5108429;27;20131;-65
2022/05/14 11:43:30;;;;;;;3.90;3.00;;;;;;;28.56;36.48;100042.81;5104921;27;20126;-66
2022/05/14 11:46:09;;;;;;;1.50;1.08;;;;;;;28.27;36.18;100023.97;5109962;27;20059;-66
2022/05/14 11:48:47;;;;;;;3.30;2.80;;;;;;;28.22;37.09;100030.16;5107127;28;20131;-67
2022/05/14 11:51:19;;;;;;;3.45;2.13;;;;;;;28.43;37.05;100020.69;5103021;27;20474;-67
2022/05/14 11:53:55;;;;;;;3.28;1.80;;;;;;;28.70;36.60;100029.63;5106822;27;20122;-67
2022/05/14 11:56:46;;;;;;;3.28;1.95;;;;;;;28.82;36.47;100009.03;5109385;28;20091;-66